EKBI/BLL METAR and TAF weather

Enter ICAO airport designator
Station Type Date Time Source
EKBI METAR 2019/10/18 05:50 UTC NOAA

EKBI 180550Z AUTO 13005KT 100V160 4500 BR BKN003/// 10/10 Q1006


Station Type Date Time Source
EKBI Decoded METAR 2019/10/18 05:50 UTC NOAA

Billund Lufthavn, Denmark (EKBI) 55-44N 009-10E 79M
Oct 18, 2019 - 01:50 AM EDT / 2019.10.18 0550 UTC
Wind: from the SE (130 degrees) at 6 MPH (5 KT) (direction variable):0
Visibility: 2 mile(s):0
Sky conditions: mostly cloudy
Weather: mist
Temperature: 50 F (10 C)
Dew Point: 50 F (10 C)
Relative Humidity: 100%
Pressure (altimeter): 29.71 in. Hg (1006 hPa)
ob: EKBI 180550Z AUTO 13005KT 100V160 4500 BR BKN003/// 10/10 Q1006
cycle: 6

Station Type Date Time Source
EKBI TAF 2019/10/18 06:30 UTC NOAA

TAF EKBI 180503Z 1806/1906 12006KT 3000 BR BKN003
TEMPO 1806/1810 6000 NSW BKN010
BECMG 1810/1812 16012KT 7000 SHRA BKN008 SCT020CB
BECMG 1812/1814 BKN015
TEMPO 1814/1906 4000 SHRA BKN010 SCT020CB
BECMG 1817/1819 21014KT

Example: see airport list